Time;durP1;ratioP1;P1;durP2;ratioP2;P2;SDS_P1;SDS_P2;PMS_P1;PMS_P2;Temp;Humidity;BMP_temperature;BMP_pressure;BME280_temperature;BME280_humidity;BME280_pressure;Samples;Min_cycle;Max_cycle;Signal;HPM_P1;HPM_P2
2021/12/09 00:01:22;;;;;;;9.07;5.78;;;2.10;99.90;;;;;;494042;241;27897;-74
2021/12/09 00:03:22;;;;;;;8.38;6.18;;;2.00;99.90;;;;;;493854;241;27983;-74
2021/12/09 00:05:23;;;;;;;11.57;6.37;;;2.00;99.90;;;;;;494005;241;28152;-74
2021/12/09 00:07:24;;;;;;;9.77;6.20;;;1.90;99.90;;;;;;494007;241;27496;-74
2021/12/09 00:09:25;;;;;;;9.25;6.50;;;1.90;99.90;;;;;;493982;241;27477;-74
2021/12/09 00:11:28;;;;;;;12.77;6.43;;;1.90;99.90;;;;;;493974;241;27481;-74
2021/12/09 00:13:28;;;;;;;12.48;7.45;;;1.90;99.90;;;;;;493882;241;27545;-74
2021/12/09 00:15:29;;;;;;;10.95;6.65;;;1.90;99.90;;;;;;494019;241;27480;-74
2021/12/09 00:17:30;;;;;;;12.10;6.50;;;1.90;99.90;;;;;;494017;241;27496;-74
2021/12/09 00:19:31;;;;;;;16.00;7.28;;;1.90;99.90;;;;;;494002;241;27950;-74
2021/12/09 00:21:33;;;;;;;10.82;7.10;;;1.80;99.90;;;;;;494003;241;27932;-74
2021/12/09 00:23:34;;;;;;;11.57;6.87;;;1.80;99.90;;;;;;494009;237;28081;-74
2021/12/09 00:25:35;;;;;;;12.55;7.15;;;1.70;99.90;;;;;;493987;241;27458;-74
2021/12/09 00:27:36;;;;;;;11.40;7.50;;;1.80;99.90;;;;;;493979;241;27497;-74
2021/12/09 00:29:38;;;;;;;10.13;6.57;;;1.80;99.90;;;;;;494007;241;27461;-74
2021/12/09 00:31:39;;;;;;;10.27;6.95;;;1.90;99.90;;;;;;493986;241;27584;-74
2021/12/09 00:33:43;;;;;;;10.68;6.93;;;1.90;99.90;;;;;;494016;241;27517;-74
2021/12/09 00:35:43;;;;;;;10.50;6.80;;;1.90;99.90;;;;;;493768;241;27596;-74
2021/12/09 00:37:59;;;;;;;9.57;7.10;;;1.90;99.90;;;;;;493830;241;27522;-74
2021/12/09 00:39:53;;;;;;;10.60;7.45;;;2.00;99.90;;;;;;493436;241;27978;-74
2021/12/09 00:41:54;;;;;;;11.12;6.80;;;2.00;99.90;;;;;;494002;241;28003;-74
2021/12/09 00:43:56;;;;;;;13.85;6.55;;;2.00;99.90;;;;;;493971;241;27533;-74
2021/12/09 00:45:57;;;;;;;10.23;6.87;;;2.00;99.90;;;;;;494021;241;27489;-74
2021/12/09 00:47:58;;;;;;;9.65;7.10;;;2.10;99.90;;;;;;493968;241;27470;-75
2021/12/09 00:49:59;;;;;;;15.85;7.60;;;2.00;99.90;;;;;;493943;241;27536;-74
2021/12/09 00:52:01;;;;;;;9.45;6.00;;;2.00;99.90;;;;;;494004;241;27507;-74
2021/12/09 00:54:02;;;;;;;11.68;6.75;;;2.00;99.90;;;;;;494019;241;27545;-74
2021/12/09 00:56:03;;;;;;;9.43;5.97;;;2.00;99.90;;;;;;493971;241;27532;-74
2021/12/09 00:58:04;;;;;;;8.70;6.45;;;2.00;99.90;;;;;;493990;241;27472;-74
2021/12/09 01:00:06;;;;;;;9.25;6.57;;;1.90;99.90;;;;;;493996;241;27469;-75
2021/12/09 01:02:09;;;;;;;10.15;6.43;;;1.90;99.90;;;;;;494015;241;27972;-74
2021/12/09 01:04:08;;;;;;;9.88;6.12;;;1.90;99.90;;;;;;493807;241;28029;-74
2021/12/09 01:06:09;;;;;;;9.80;6.47;;;1.80;99.90;;;;;;493959;241;27976;-75
2021/12/09 01:08:11;;;;;;;10.93;6.37;;;1.80;99.90;;;;;;494038;241;27477;-74
2021/12/09 01:10:12;;;;;;;9.95;6.80;;;1.80;99.90;;;;;;493999;241;27467;-74
2021/12/09 01:12:13;;;;;;;10.70;6.70;;;1.80;99.90;;;;;;494020;241;27514;-75
2021/12/09 01:14:14;;;;;;;10.32;7.18;;;1.80;99.90;;;;;;494036;241;27573;-75
2021/12/09 01:16:16;;;;;;;9.00;6.40;;;1.90;99.90;;;;;;494042;241;27490;-75
2021/12/09 01:18:17;;;;;;;9.98;6.05;;;2.00;99.90;;;;;;494043;241;27500;-75
2021/12/09 01:20:18;;;;;;;9.02;6.00;;;2.10;99.90;;;;;;494008;241;27457;-74
2021/12/09 01:22:20;;;;;;;8.82;6.40;;;2.10;99.90;;;;;;494050;241;27529;-74
2021/12/09 01:24:21;;;;;;;8.93;5.95;;;2.10;99.90;;;;;;494017;241;27484;-74
2021/12/09 01:26:23;;;;;;;7.05;6.03;;;2.10;99.90;;;;;;494013;241;28008;-75
2021/12/09 01:28:26;;;;;;;9.43;6.25;;;2.20;99.90;;;;;;493933;241;27984;-74
2021/12/09 01:30:25;;;;;;;7.40;5.45;;;2.20;99.90;;;;;;493771;241;27475;-75
2021/12/09 01:32:30;;;;;;;8.80;5.60;;;2.20;99.90;;;;;;494014;241;27674;-75
2021/12/09 01:34:27;;;;;;;7.47;5.87;;;2.20;99.90;;;;;;493695;241;27459;-74
2021/12/09 01:36:28;;;;;;;7.15;5.15;;;2.20;99.90;;;;;;494025;241;27490;-74
2021/12/09 01:38:32;;;;;;;7.10;5.60;;;2.20;99.90;;;;;;494029;241;27479;-74
2021/12/09 01:40:31;;;;;;;9.48;5.82;;;2.20;99.90;;;;;;493875;241;27484;-74
2021/12/09 01:42:32;;;;;;;7.20;5.60;;;2.20;99.90;;;;;;494039;241;27497;-75
2021/12/09 01:44:33;;;;;;;7.82;4.90;;;2.20;99.90;;;;;;494043;241;27528;-74
2021/12/09 01:46:35;;;;;;;8.32;5.45;;;2.20;99.90;;;;;;494017;241;27524;-74
2021/12/09 01:48:36;;;;;;;5.57;4.60;;;2.20;99.90;;;;;;494022;241;28774;-75
2021/12/09 01:50:37;;;;;;;6.40;4.60;;;2.20;99.90;;;;;;494036;241;27976;-74
2021/12/09 01:52:38;;;;;;;7.32;5.40;;;2.10;99.90;;;;;;494039;241;27975;-74
2021/12/09 01:54:40;;;;;;;7.80;4.60;;;2.00;99.90;;;;;;494015;241;29083;-74
2021/12/09 01:56:41;;;;;;;6.60;5.35;;;1.90;99.90;;;;;;494002;237;27523;-75
2021/12/09 01:58:42;;;;;;;11.63;5.95;;;1.80;99.90;;;;;;494013;241;27462;-74
2021/12/09 02:00:43;;;;;;;5.65;4.80;;;1.80;99.90;;;;;;494026;241;27996;-75
2021/12/09 02:02:45;;;;;;;7.57;6.10;;;1.70;99.90;;;;;;494039;241;28057;-75
2021/12/09 02:04:46;;;;;;;6.85;5.82;;;1.70;99.90;;;;;;493993;241;27941;-75
2021/12/09 02:06:47;;;;;;;9.63;6.12;;;1.60;99.90;;;;;;493990;241;27972;-74
2021/12/09 02:08:48;;;;;;;6.47;5.75;;;1.60;99.90;;;;;;494038;241;27547;-75
2021/12/09 02:10:50;;;;;;;9.70;5.68;;;1.60;99.90;;;;;;494023;238;27601;-75
2021/12/09 02:12:51;;;;;;;9.90;7.03;;;1.50;99.90;;;;;;494032;241;27560;-75
2021/12/09 02:14:54;;;;;;;10.18;7.00;;;1.50;99.90;;;;;;493995;237;27466;-74
2021/12/09 02:16:53;;;;;;;12.25;7.50;;;1.40;99.90;;;;;;493917;241;27506;-75
2021/12/09 02:18:55;;;;;;;11.20;7.93;;;1.30;99.90;;;;;;494063;241;27536;-74
2021/12/09 02:20:56;;;;;;;10.38;6.97;;;1.30;99.90;;;;;;494040;241;27475;-75
2021/12/09 02:22:57;;;;;;;11.68;7.28;;;1.30;99.90;;;;;;494028;241;27508;-74
2021/12/09 02:24:58;;;;;;;10.27;7.78;;;1.30;99.90;;;;;;494020;241;27969;-75
2021/12/09 02:27:00;;;;;;;11.65;6.75;;;1.20;99.90;;;;;;493997;241;28003;-74
2021/12/09 02:29:01;;;;;;;9.40;6.70;;;1.20;99.90;;;;;;494002;241;28059;-74
2021/12/09 02:31:02;;;;;;;8.80;5.95;;;1.20;99.90;;;;;;494027;241;27931;-75
2021/12/09 02:33:03;;;;;;;8.80;6.80;;;1.20;99.90;;;;;;493993;241;27635;-75
2021/12/09 02:35:05;;;;;;;11.18;5.82;;;1.30;99.90;;;;;;494019;241;27517;-75
2021/12/09 02:37:08;;;;;;;11.25;7.37;;;1.30;99.90;;;;;;493993;241;27539;-75
2021/12/09 02:39:09;;;;;;;12.05;6.30;;;1.30;99.90;;;;;;493874;241;27521;-74
2021/12/09 02:41:14;;;;;;;10.82;7.10;;;1.40;99.90;;;;;;494012;241;27507;-75
2021/12/09 02:43:11;;;;;;;8.85;6.15;;;1.40;99.90;;;;;;493628;241;27979;-75
2021/12/09 02:45:12;;;;;;;7.40;5.93;;;1.40;99.90;;;;;;494043;241;28016;-74
2021/12/09 02:47:14;;;;;;;9.85;6.70;;;1.40;99.90;;;;;;494025;241;28006;-75
2021/12/09 02:49:15;;;;;;;9.82;6.45;;;1.50;99.90;;;;;;494039;241;27932;-75
2021/12/09 02:51:16;;;;;;;12.27;5.93;;;1.50;99.90;;;;;;494012;241;27982;-76
2021/12/09 02:53:17;;;;;;;9.20;5.80;;;1.60;99.90;;;;;;493996;241;27578;-74
2021/12/09 02:55:19;;;;;;;8.55;6.12;;;1.60;99.90;;;;;;494051;241;27465;-75
2021/12/09 02:57:20;;;;;;;8.00;5.60;;;1.60;99.90;;;;;;494055;241;27500;-74
2021/12/09 02:59:21;;;;;;;7.75;5.60;;;1.60;99.90;;;;;;494029;241;27530;-75
2021/12/09 03:01:22;;;;;;;10.35;6.40;;;1.60;99.90;;;;;;494067;241;27493;-74
2021/12/09 03:03:24;;;;;;;8.88;5.18;;;1.60;99.90;;;;;;494040;241;27529;-74
2021/12/09 03:05:25;;;;;;;9.43;5.60;;;1.50;99.90;;;;;;494047;241;27550;-74
2021/12/09 03:07:28;;;;;;;7.50;6.30;;;1.50;99.90;;;;;;494010;241;27500;-74
2021/12/09 03:09:28;;;;;;;9.25;6.57;;;1.50;99.90;;;;;;493859;241;27462;-75
2021/12/09 03:11:29;;;;;;;13.15;6.22;;;1.50;99.90;;;;;;494016;241;27936;-75
2021/12/09 03:13:30;;;;;;;8.98;6.45;;;1.50;99.90;;;;;;494036;241;28041;-75
2021/12/09 03:15:31;;;;;;;7.53;6.22;;;1.50;99.90;;;;;;494028;241;27949;-73
2021/12/09 03:17:33;;;;;;;9.43;6.30;;;1.60;99.90;;;;;;494030;241;27989;-74
2021/12/09 03:19:34;;;;;;;10.75;6.57;;;1.60;99.90;;;;;;493931;241;27572;-74
2021/12/09 03:21:35;;;;;;;13.85;6.87;;;1.70;99.90;;;;;;494041;241;27463;-75
2021/12/09 03:23:36;;;;;;;9.65;6.85;;;1.70;99.90;;;;;;494029;241;27496;-75
2021/12/09 03:25:37;;;;;;;10.18;6.37;;;1.80;99.90;;;;;;494035;241;27451;-74
2021/12/09 03:27:39;;;;;;;8.30;6.37;;;1.80;99.90;;;;;;494006;241;27623;-75
2021/12/09 03:29:40;;;;;;;8.15;6.03;;;1.90;99.90;;;;;;493990;241;27567;-74
2021/12/09 03:31:41;;;;;;;12.90;6.90;;;1.90;99.90;;;;;;494051;241;27462;-75
2021/12/09 03:33:42;;;;;;;9.75;7.03;;;1.90;99.90;;;;;;494014;241;27579;-75
2021/12/09 03:35:44;;;;;;;11.68;7.22;;;2.00;99.90;;;;;;494011;241;27981;-74
2021/12/09 03:37:45;;;;;;;13.82;7.20;;;2.00;99.90;;;;;;493990;241;27969;-74
2021/12/09 03:39:46;;;;;;;10.70;6.30;;;2.00;99.90;;;;;;493996;241;27926;-74
2021/12/09 03:41:47;;;;;;;11.70;6.57;;;2.10;99.90;;;;;;494029;241;27442;-75
2021/12/09 03:43:49;;;;;;;9.60;7.30;;;2.10;99.90;;;;;;494028;241;27497;-75
2021/12/09 03:45:50;;;;;;;10.35;7.00;;;2.10;99.90;;;;;;494014;241;27463;-75
2021/12/09 03:47:51;;;;;;;8.95;6.40;;;2.10;99.90;;;;;;493991;241;27484;-75
2021/12/09 03:49:52;;;;;;;7.80;6.22;;;2.10;99.90;;;;;;493998;241;27644;-74
2021/12/09 03:51:54;;;;;;;9.95;6.20;;;2.20;99.90;;;;;;494023;241;27611;-75
2021/12/09 03:53:55;;;;;;;8.50;5.68;;;2.10;99.90;;;;;;494031;241;27493;-74
2021/12/09 03:55:56;;;;;;;9.93;7.20;;;2.10;99.90;;;;;;494024;241;27556;-74
2021/12/09 03:57:57;;;;;;;11.45;6.30;;;2.20;99.90;;;;;;494010;241;27575;-75
2021/12/09 03:59:59;;;;;;;12.93;6.78;;;2.20;99.90;;;;;;494022;241;28040;-74
2021/12/09 04:02:00;;;;;;;11.77;6.45;;;2.20;99.90;;;;;;493971;241;27949;-74
2021/12/09 04:04:01;;;;;;;14.18;6.53;;;2.10;99.90;;;;;;493971;237;28020;-76
2021/12/09 04:06:02;;;;;;;11.93;7.45;;;2.20;99.90;;;;;;493939;241;27454;-74
2021/12/09 04:08:04;;;;;;;12.85;6.95;;;2.20;99.90;;;;;;493921;241;27611;-74
2021/12/09 04:10:05;;;;;;;12.10;7.70;;;2.20;99.90;;;;;;493914;241;27503;-75
2021/12/09 04:12:07;;;;;;;9.93;6.95;;;2.20;99.90;;;;;;493923;241;27512;-74
2021/12/09 04:14:07;;;;;;;9.10;6.07;;;2.20;99.90;;;;;;493980;241;27890;-74
2021/12/09 04:16:09;;;;;;;10.40;6.30;;;2.20;99.90;;;;;;494046;241;27460;-74
2021/12/09 04:18:10;;;;;;;14.35;7.55;;;2.20;99.90;;;;;;493999;241;27634;-75
2021/12/09 04:20:11;;;;;;;12.40;7.00;;;2.20;99.90;;;;;;494025;241;27896;-75
2021/12/09 04:22:12;;;;;;;9.20;6.22;;;2.20;99.90;;;;;;493980;241;27993;-75
2021/12/09 04:24:14;;;;;;;10.40;6.45;;;2.20;99.90;;;;;;494039;241;28094;-75
2021/12/09 04:26:15;;;;;;;11.50;7.15;;;2.20;99.90;;;;;;494042;241;27467;-74
2021/12/09 04:28:16;;;;;;;11.20;6.78;;;2.10;99.90;;;;;;494035;241;27493;-74
2021/12/09 04:30:19;;;;;;;12.05;7.78;;;2.10;99.90;;;;;;494001;241;27470;-74
2021/12/09 04:32:19;;;;;;;11.32;7.90;;;2.20;99.90;;;;;;493940;241;27502;-75
2021/12/09 04:34:20;;;;;;;11.95;7.70;;;2.20;99.90;;;;;;493997;241;27964;-74
2021/12/09 04:36:21;;;;;;;9.45;7.57;;;2.30;99.90;;;;;;493993;241;27481;-74
2021/12/09 04:38:22;;;;;;;12.93;8.43;;;2.30;99.90;;;;;;494028;241;27488;-75
2021/12/09 04:40:24;;;;;;;9.85;7.62;;;2.20;99.90;;;;;;493991;241;27597;-75
2021/12/09 04:42:25;;;;;;;10.57;7.03;;;2.20;99.90;;;;;;493993;241;28031;-75
2021/12/09 04:44:26;;;;;;;14.45;8.23;;;2.20;99.90;;;;;;493975;237;28130;-74
2021/12/09 04:46:27;;;;;;;12.05;7.72;;;2.20;99.90;;;;;;493995;241;27925;-75
2021/12/09 04:48:29;;;;;;;16.20;8.25;;;2.20;99.90;;;;;;493997;241;27490;-74
2021/12/09 04:50:30;;;;;;;8.55;6.53;;;2.20;99.90;;;;;;493989;241;27461;-75
2021/12/09 04:52:31;;;;;;;10.60;7.70;;;2.30;99.90;;;;;;493989;241;27524;-74
2021/12/09 04:54:32;;;;;;;15.43;8.05;;;2.20;99.90;;;;;;494026;241;27894;-75
2021/12/09 04:56:34;;;;;;;14.43;8.27;;;2.20;99.90;;;;;;494009;241;27515;-75
2021/12/09 04:58:35;;;;;;;12.00;7.45;;;2.10;99.90;;;;;;494020;241;27506;-75
2021/12/09 05:00:38;;;;;;;12.75;8.23;;;2.10;99.90;;;;;;493978;241;27470;-75
2021/12/09 05:03:01;;;;;;;14.35;8.68;;;2.20;99.90;;;;;;493892;241;27933;-75
2021/12/09 05:04:42;;;;;;;13.07;8.00;;;2.20;99.90;;;;;;492300;241;27577;-75
2021/12/09 05:06:43;;;;;;;14.07;8.07;;;2.20;99.90;;;;;;493989;241;27527;-74
2021/12/09 05:08:47;;;;;;;13.05;8.02;;;2.20;99.90;;;;;;493991;241;27504;-74
2021/12/09 05:11:00;;;;;;;13.88;7.87;;;2.20;99.90;;;;;;493757;241;27617;-75
2021/12/09 05:12:56;;;;;;;13.62;8.65;;;2.20;99.90;;;;;;493593;241;27470;-74
2021/12/09 05:14:57;;;;;;;10.85;6.93;;;2.30;99.90;;;;;;493995;241;27964;-74
2021/12/09 05:16:59;;;;;;;13.20;8.00;;;2.30;99.90;;;;;;493971;241;28009;-74
2021/12/09 05:19:00;;;;;;;15.55;7.93;;;2.20;99.90;;;;;;493932;241;27954;-74
2021/12/09 05:21:01;;;;;;;12.50;7.95;;;2.20;99.90;;;;;;494013;241;27600;-74
2021/12/09 05:23:03;;;;;;;10.55;7.45;;;2.20;99.90;;;;;;494022;241;27468;-75
2021/12/09 05:25:03;;;;;;;13.62;7.47;;;2.20;99.90;;;;;;493939;241;27586;-75
2021/12/09 05:27:05;;;;;;;17.17;8.32;;;2.20;99.90;;;;;;493994;241;27497;-75
2021/12/09 05:29:06;;;;;;;13.05;7.80;;;2.20;99.90;;;;;;493984;241;27518;-74
2021/12/09 05:33:27;;;;;;;12.10;7.28;;;2.30;99.90;;;;;;493960;241;27520;-74
2021/12/09 05:35:28;;;;;;;11.52;7.37;;;2.30;99.90;;;;;;493960;241;27561;-74
2021/12/09 05:37:29;;;;;;;13.93;6.70;;;2.20;99.90;;;;;;494009;241;27522;-74
2021/12/09 05:39:31;;;;;;;9.75;6.57;;;2.30;99.90;;;;;;494025;241;27465;-75
2021/12/09 05:41:33;;;;;;;12.85;7.43;;;2.30;99.90;;;;;;493986;241;27499;-74
2021/12/09 05:43:33;;;;;;;10.43;7.05;;;2.30;99.90;;;;;;493946;241;27477;-75
2021/12/09 05:45:34;;;;;;;9.40;6.82;;;2.20;99.90;;;;;;493962;241;28030;-74
2021/12/09 05:47:36;;;;;;;11.07;6.47;;;2.20;99.90;;;;;;493983;241;27991;-74
2021/12/09 05:49:37;;;;;;;9.90;6.75;;;2.30;99.90;;;;;;493904;241;28050;-75
2021/12/09 05:51:38;;;;;;;11.25;6.60;;;2.30;99.90;;;;;;493785;241;27525;-75
2021/12/09 05:53:39;;;;;;;10.00;6.28;;;2.20;99.90;;;;;;493745;241;27593;-74
2021/12/09 05:55:44;;;;;;;7.65;6.20;;;2.30;99.90;;;;;;493762;241;27576;-75
2021/12/09 05:57:44;;;;;;;11.70;6.20;;;2.30;99.90;;;;;;493760;241;27593;-74
2021/12/09 05:59:46;;;;;;;11.25;5.72;;;2.30;99.90;;;;;;493997;241;27568;-74
2021/12/09 06:01:47;;;;;;;10.48;6.22;;;2.30;99.90;;;;;;494013;241;27473;-74
2021/12/09 06:03:48;;;;;;;12.20;6.53;;;2.30;99.90;;;;;;493971;241;27528;-74
2021/12/09 06:05:49;;;;;;;10.15;6.03;;;2.30;99.90;;;;;;493958;241;27473;-75
2021/12/09 06:07:51;;;;;;;10.50;7.43;;;2.30;99.90;;;;;;494015;241;27914;-75
2021/12/09 06:09:52;;;;;;;11.48;6.80;;;2.30;99.90;;;;;;494043;241;28047;-75
2021/12/09 06:11:53;;;;;;;11.82;7.28;;;2.30;99.90;;;;;;494022;241;27926;-74
2021/12/09 06:13:55;;;;;;;9.60;6.90;;;2.30;99.90;;;;;;494006;241;27497;-75
2021/12/09 06:15:56;;;;;;;14.85;8.02;;;2.30;99.90;;;;;;494010;241;27486;-74
2021/12/09 06:17:57;;;;;;;12.73;7.70;;;2.30;99.90;;;;;;494035;241;27535;-75
2021/12/09 06:19:58;;;;;;;8.27;6.85;;;2.30;99.90;;;;;;494015;241;27580;-75
2021/12/09 06:22:00;;;;;;;7.82;6.65;;;2.30;99.90;;;;;;494020;241;27489;-75
2021/12/09 06:24:01;;;;;;;9.73;6.25;;;2.30;99.90;;;;;;494015;241;27504;-75
2021/12/09 06:26:02;;;;;;;8.05;6.30;;;2.30;99.90;;;;;;494031;241;27944;-74
2021/12/09 06:28:03;;;;;;;7.30;5.80;;;2.30;99.90;;;;;;494037;241;27476;-75
2021/12/09 06:30:05;;;;;;;11.27;6.60;;;2.30;99.90;;;;;;494010;241;27510;-74
2021/12/09 06:32:06;;;;;;;8.82;5.80;;;2.30;99.90;;;;;;494016;241;28036;-74
2021/12/09 06:34:07;;;;;;;10.90;6.95;;;2.40;99.90;;;;;;493986;241;28113;-75
2021/12/09 06:36:08;;;;;;;7.93;6.10;;;2.40;99.90;;;;;;494030;241;28076;-74
2021/12/09 06:38:14;;;;;;;10.77;5.90;;;2.40;99.90;;;;;;494066;241;27454;-75
2021/12/09 06:40:11;;;;;;;9.15;5.22;;;2.40;99.90;;;;;;493721;241;27577;-74
2021/12/09 06:42:13;;;;;;;8.40;5.47;;;2.30;99.90;;;;;;494009;241;27459;-74
2021/12/09 06:44:13;;;;;;;10.98;5.87;;;2.30;99.90;;;;;;493967;241;27488;-74
2021/12/09 06:46:15;;;;;;;7.87;5.32;;;2.30;99.90;;;;;;494030;241;27641;-74
2021/12/09 06:48:16;;;;;;;8.18;6.62;;;2.40;99.90;;;;;;494035;241;27473;-74
2021/12/09 06:50:17;;;;;;;10.23;6.55;;;2.40;99.90;;;;;;494027;241;27498;-74
2021/12/09 06:52:19;;;;;;;9.30;6.75;;;2.40;99.90;;;;;;494028;241;27470;-75
2021/12/09 06:54:20;;;;;;;13.10;6.65;;;2.40;99.90;;;;;;494010;241;27588;-75
2021/12/09 06:56:21;;;;;;;9.40;6.25;;;2.30;99.90;;;;;;494032;241;28477;-74
2021/12/09 06:58:22;;;;;;;8.90;6.75;;;2.40;99.90;;;;;;494045;241;27938;-74
2021/12/09 07:00:23;;;;;;;11.60;6.97;;;2.30;99.90;;;;;;494014;241;28055;-75
2021/12/09 07:02:25;;;;;;;12.35;6.87;;;2.30;99.90;;;;;;493999;241;27613;-74
2021/12/09 07:04:26;;;;;;;8.30;6.55;;;2.30;99.90;;;;;;493979;241;27608;-74
2021/12/09 07:06:27;;;;;;;7.32;5.75;;;2.30;99.90;;;;;;493968;241;27502;-75
2021/12/09 07:08:28;;;;;;;10.27;6.72;;;2.30;99.90;;;;;;494013;241;27446;-75
2021/12/09 07:10:30;;;;;;;11.10;6.50;;;2.30;99.90;;;;;;494003;241;27506;-74
2021/12/09 07:12:34;;;;;;;10.38;6.72;;;2.30;99.90;;;;;;494023;241;27460;-74
2021/12/09 07:14:32;;;;;;;9.52;5.72;;;2.30;99.90;;;;;;493804;241;27494;-75
2021/12/09 07:16:33;;;;;;;10.90;6.82;;;2.30;99.90;;;;;;493958;241;27463;-74
2021/12/09 07:18:35;;;;;;;9.55;6.35;;;2.30;99.90;;;;;;494027;241;28034;-74
2021/12/09 07:20:36;;;;;;;10.70;7.97;;;2.30;99.90;;;;;;494019;241;27984;-75
2021/12/09 07:22:37;;;;;;;12.68;7.60;;;2.30;99.90;;;;;;494015;241;27903;-75
2021/12/09 07:24:38;;;;;;;10.38;7.30;;;2.30;99.90;;;;;;494024;241;27486;-75
2021/12/09 07:26:40;;;;;;;12.68;8.57;;;2.30;99.90;;;;;;493954;241;27576;-75
2021/12/09 07:28:41;;;;;;;16.98;7.65;;;2.30;99.90;;;;;;494020;237;27451;-74
2021/12/09 07:30:42;;;;;;;10.75;7.90;;;2.30;99.90;;;;;;494005;241;27572;-75
2021/12/09 07:32:43;;;;;;;12.85;8.32;;;2.30;99.90;;;;;;493998;241;27542;-74
2021/12/09 07:34:45;;;;;;;11.57;8.25;;;2.30;99.90;;;;;;494003;241;27525;-74
2021/12/09 07:36:46;;;;;;;11.85;7.47;;;2.30;99.90;;;;;;493988;241;27544;-74
2021/12/09 07:38:47;;;;;;;10.73;8.00;;;2.30;99.90;;;;;;493991;241;27847;-74
2021/12/09 07:40:48;;;;;;;15.25;8.60;;;2.20;99.90;;;;;;494003;241;28182;-75
2021/12/09 07:42:50;;;;;;;15.50;8.85;;;2.20;99.90;;;;;;494022;241;27970;-74
2021/12/09 07:44:51;;;;;;;12.88;8.23;;;2.20;99.90;;;;;;493999;241;27615;-75
2021/12/09 07:46:54;;;;;;;12.70;8.00;;;2.10;99.90;;;;;;494032;241;27569;-75
2021/12/09 07:48:53;;;;;;;14.60;8.65;;;2.20;99.90;;;;;;493931;241;27488;-75
2021/12/09 07:50:55;;;;;;;13.35;9.15;;;2.20;99.90;;;;;;494062;241;27563;-74
2021/12/09 07:52:56;;;;;;;13.55;8.52;;;2.10;99.90;;;;;;494048;241;27535;-74
2021/12/09 07:54:57;;;;;;;17.92;9.63;;;2.10;99.90;;;;;;494007;241;27585;-75
2021/12/09 07:56:58;;;;;;;15.75;8.40;;;2.10;99.90;;;;;;494021;241;27536;-75
2021/12/09 07:59:00;;;;;;;18.20;8.20;;;2.10;99.90;;;;;;493974;241;28108;-74
2021/12/09 08:01:01;;;;;;;15.25;9.10;;;2.10;99.90;;;;;;494015;241;27968;-75
2021/12/09 08:03:02;;;;;;;13.40;8.65;;;2.00;99.90;;;;;;494025;241;29066;-74
2021/12/09 08:05:03;;;;;;;13.02;8.32;;;2.00;99.90;;;;;;493999;241;27493;-75
2021/12/09 08:07:05;;;;;;;13.95;8.18;;;2.00;99.90;;;;;;493986;241;27605;-75
2021/12/09 08:09:08;;;;;;;13.52;8.57;;;2.00;99.90;;;;;;493994;241;27592;-75
2021/12/09 08:11:07;;;;;;;13.15;8.90;;;2.00;99.90;;;;;;493947;237;27530;-74
2021/12/09 08:13:09;;;;;;;15.13;8.52;;;2.00;99.90;;;;;;493999;241;27545;-74
2021/12/09 08:15:10;;;;;;;13.62;7.55;;;2.00;99.90;;;;;;493863;241;27536;-74
2021/12/09 08:17:58;;;;;;;14.00;8.52;;;2.00;99.90;;;;;;493995;241;27558;-74
2021/12/09 08:19:16;;;;;;;17.15;9.35;;;1.90;99.90;;;;;;490827;241;27541;-75
2021/12/09 08:21:16;;;;;;;14.00;8.85;;;1.90;99.90;;;;;;493959;241;27489;-75
2021/12/09 08:23:18;;;;;;;19.33;10.02;;;1.90;99.90;;;;;;493996;241;27510;-74
2021/12/09 08:25:19;;;;;;;15.48;9.10;;;2.00;99.90;;;;;;493975;238;27473;-74
2021/12/09 08:27:20;;;;;;;16.35;9.40;;;2.00;99.90;;;;;;494000;241;27514;-75
2021/12/09 08:29:21;;;;;;;15.45;8.82;;;1.90;99.90;;;;;;493962;241;27468;-75
2021/12/09 08:31:23;;;;;;;19.10;9.45;;;1.90;99.90;;;;;;493967;241;28010;-74
2021/12/09 08:33:24;;;;;;;12.68;8.65;;;1.80;99.90;;;;;;494019;241;27957;-74
2021/12/09 08:35:25;;;;;;;18.33;10.13;;;1.90;99.90;;;;;;494000;241;27992;-74
2021/12/09 08:37:26;;;;;;;17.90;9.68;;;1.90;99.90;;;;;;494002;241;27496;-74
2021/12/09 08:39:28;;;;;;;15.60;9.05;;;1.80;99.90;;;;;;493989;241;27465;-74
2021/12/09 08:41:29;;;;;;;12.70;8.38;;;1.90;99.90;;;;;;494003;241;27536;-74
2021/12/09 08:43:30;;;;;;;18.08;10.35;;;1.90;99.90;;;;;;494013;241;27597;-75
2021/12/09 08:45:31;;;;;;;14.48;9.25;;;2.00;99.90;;;;;;493987;241;27472;-74
2021/12/09 08:47:33;;;;;;;13.70;8.10;;;1.90;99.90;;;;;;493968;241;27525;-75
2021/12/09 08:49:34;;;;;;;14.45;9.45;;;1.90;99.90;;;;;;493951;241;27473;-73
2021/12/09 08:51:35;;;;;;;12.55;7.50;;;2.00;99.90;;;;;;494013;241;27961;-74
2021/12/09 08:53:37;;;;;;;10.75;7.50;;;2.00;99.90;;;;;;494019;241;27986;-75
2021/12/09 08:55:38;;;;;;;12.15;7.50;;;2.00;99.90;;;;;;494008;241;27468;-74
2021/12/09 08:57:39;;;;;;;12.48;7.82;;;2.10;99.90;;;;;;494001;241;27609;-75
2021/12/09 08:59:40;;;;;;;11.93;6.93;;;2.10;99.90;;;;;;494017;241;27562;-75
2021/12/09 09:01:42;;;;;;;9.77;7.30;;;2.10;99.90;;;;;;494010;241;27536;-75
2021/12/09 09:03:43;;;;;;;17.17;9.25;;;2.10;99.90;;;;;;494037;241;27514;-75
2021/12/09 09:05:44;;;;;;;15.68;8.38;;;2.10;99.90;;;;;;494024;241;27596;-74
2021/12/09 09:07:45;;;;;;;11.93;7.97;;;2.00;99.90;;;;;;493991;241;27607;-75
2021/12/09 09:09:47;;;;;;;13.50;8.25;;;2.10;99.90;;;;;;494024;241;27482;-74
2021/12/09 09:11:48;;;;;;;15.00;8.35;;;2.10;99.90;;;;;;494006;241;27922;-75
2021/12/09 09:13:49;;;;;;;11.63;8.30;;;2.10;99.90;;;;;;494024;241;28076;-75
2021/12/09 09:15:50;;;;;;;13.20;8.30;;;2.10;99.90;;;;;;494039;241;27927;-74
2021/12/09 09:17:52;;;;;;;15.20;9.55;;;2.00;99.90;;;;;;494031;241;27593;-75
2021/12/09 09:19:53;;;;;;;12.40;8.63;;;2.00;99.90;;;;;;494037;241;27520;-75
2021/12/09 09:21:54;;;;;;;16.73;9.48;;;2.00;99.90;;;;;;494036;241;27519;-74
2021/12/09 09:23:56;;;;;;;12.77;8.27;;;2.10;99.90;;;;;;494012;241;27577;-75
2021/12/09 09:25:57;;;;;;;17.85;9.65;;;2.00;99.90;;;;;;494000;241;27518;-75
2021/12/09 09:27:58;;;;;;;13.62;8.95;;;2.00;99.90;;;;;;494007;241;27598;-74
2021/12/09 09:29:59;;;;;;;12.25;8.32;;;2.10;99.90;;;;;;493987;241;27586;-74
2021/12/09 09:32:00;;;;;;;14.85;8.70;;;2.10;99.90;;;;;;493994;241;27945;-74
2021/12/09 09:34:05;;;;;;;14.43;8.90;;;2.10;99.90;;;;;;494016;241;27976;-75
2021/12/09 09:36:03;;;;;;;13.98;8.70;;;2.10;99.90;;;;;;493740;241;28039;-74
2021/12/09 09:38:04;;;;;;;12.32;8.70;;;2.10;99.90;;;;;;494026;241;27476;-74
2021/12/09 09:40:05;;;;;;;13.68;9.05;;;2.20;99.90;;;;;;494005;241;27609;-74
2021/12/09 09:42:20;;;;;;;14.75;9.23;;;2.20;99.90;;;;;;493992;241;27456;-74
2021/12/09 09:44:16;;;;;;;14.85;8.43;;;2.20;99.90;;;;;;492849;241;27490;-75
2021/12/09 09:46:12;;;;;;;15.05;9.50;;;2.10;99.90;;;;;;493630;241;27505;-75
2021/12/09 09:48:13;;;;;;;17.65;9.77;;;2.20;99.90;;;;;;494031;241;27995;-74
2021/12/09 09:50:15;;;;;;;16.20;10.43;;;2.20;99.90;;;;;;494022;241;27906;-75
2021/12/09 09:52:16;;;;;;;13.62;9.52;;;2.30;99.90;;;;;;494026;241;27994;-76
2021/12/09 09:54:17;;;;;;;16.75;10.05;;;2.20;99.90;;;;;;494001;241;27536;-75
2021/12/09 09:56:19;;;;;;;14.30;9.60;;;2.20;99.90;;;;;;494013;241;27613;-75
2021/12/09 09:58:21;;;;;;;14.13;9.73;;;2.20;99.90;;;;;;493979;241;27506;-74
2021/12/09 10:00:22;;;;;;;13.90;7.87;;;2.30;99.90;;;;;;494012;237;27608;-75
2021/12/09 10:02:23;;;;;;;15.40;9.10;;;2.20;99.90;;;;;;493999;241;27550;-75
2021/12/09 10:04:44;;;;;;;12.07;7.95;;;2.30;99.90;;;;;;494026;241;28029;-75
2021/12/09 10:06:35;;;;;;;15.30;9.30;;;2.30;99.90;;;;;;493076;241;27544;-74
2021/12/09 10:08:36;;;;;;;13.25;8.55;;;2.30;99.90;;;;;;493989;241;27539;-75
2021/12/09 10:10:38;;;;;;;14.23;8.88;;;2.30;99.90;;;;;;494027;241;27455;-75
2021/12/09 10:12:38;;;;;;;11.80;7.62;;;2.30;99.90;;;;;;493931;241;27539;-75
2021/12/09 10:14:40;;;;;;;11.75;7.78;;;2.40;99.90;;;;;;493980;241;28066;-74
2021/12/09 10:16:42;;;;;;;9.45;7.18;;;2.40;99.90;;;;;;494014;237;27932;-75
2021/12/09 10:18:43;;;;;;;13.10;8.18;;;2.40;99.90;;;;;;494017;241;28047;-75
2021/12/09 10:20:44;;;;;;;11.63;8.73;;;2.50;99.90;;;;;;493973;241;27467;-75
2021/12/09 10:22:45;;;;;;;16.05;8.38;;;2.50;99.90;;;;;;494005;241;27588;-74
2021/12/09 10:24:46;;;;;;;10.90;7.72;;;2.60;99.90;;;;;;493992;241;27494;-75
2021/12/09 10:26:48;;;;;;;10.68;7.15;;;2.60;99.90;;;;;;494008;241;27575;-74
2021/12/09 10:28:51;;;;;;;13.48;7.82;;;2.60;99.90;;;;;;494016;241;27494;-74
2021/12/09 10:30:50;;;;;;;11.45;8.15;;;2.50;99.90;;;;;;493847;241;27485;-75
2021/12/09 10:32:55;;;;;;;14.68;8.77;;;2.50;99.90;;;;;;494011;241;27505;-75
2021/12/09 10:34:52;;;;;;;15.93;9.20;;;2.50;99.90;;;;;;493669;241;27924;-75
2021/12/09 10:36:54;;;;;;;18.10;10.38;;;2.50;99.90;;;;;;493946;241;28051;-75